createdAt,value
2024-04-15T00:01:40.958Z,97171.66
2024-04-15T00:04:08.302Z,97161.09
2024-04-15T00:06:35.603Z,97163.41
2024-04-15T00:09:02.765Z,97178.84
2024-04-15T00:11:30.020Z,97214.09
2024-04-15T00:13:57.162Z,97179.56
2024-04-15T00:16:24.409Z,97183.31
2024-04-15T00:18:51.740Z,97206.03
2024-04-15T00:21:19.011Z,97205.81
2024-04-15T00:23:47.514Z,97202.41
2024-04-15T00:26:14.885Z,97212.72
2024-04-15T00:28:42.181Z,97218.72
2024-04-15T00:31:09.680Z,97211.53
2024-04-15T00:33:37.217Z,97210.75
2024-04-15T00:36:05.141Z,97236.75
2024-04-15T00:38:32.378Z,97215.94
2024-04-15T00:40:59.875Z,97254.38
2024-04-15T00:43:27.151Z,97215.56
2024-04-15T00:45:54.431Z,97220.44
2024-04-15T00:48:21.702Z,97209.44
2024-04-15T00:50:50.790Z,97220.31
2024-04-15T00:53:23.715Z,97225.72
2024-04-15T00:55:54.949Z,97212.31
2024-04-15T00:58:25.705Z,97214.34
2024-04-15T01:00:54.939Z,97216.84
2024-04-15T01:03:23.570Z,97211.00
2024-04-15T01:05:51.357Z,97226.50
2024-04-15T01:08:19.068Z,97229.59
2024-04-15T01:10:55.556Z,97229.50
2024-04-15T01:13:27.995Z,97221.06
2024-04-15T01:16:02.150Z,97224.25
2024-04-15T01:18:30.629Z,97221.94
2024-04-15T01:20:59.829Z,97222.88
2024-04-15T01:23:39.339Z,97203.19
2024-04-15T01:26:06.562Z,97213.75
2024-04-15T01:28:33.886Z,97217.09
2024-04-15T01:31:01.350Z,97222.88
2024-04-15T01:33:28.496Z,97228.94
2024-04-15T01:35:55.794Z,97230.41
2024-04-15T01:38:23.017Z,97232.63
2024-04-15T01:40:50.277Z,97229.00
2024-04-15T01:43:19.282Z,97222.59
2024-04-15T01:45:46.934Z,97232.66
2024-04-15T01:48:14.471Z,97243.50
2024-04-15T01:50:41.710Z,97224.38
2024-04-15T01:53:12.763Z,97220.16
2024-04-15T01:55:40.290Z,97223.72
2024-04-15T01:58:07.572Z,97222.19
2024-04-15T02:00:35.312Z,97232.75
2024-04-15T02:03:02.983Z,97234.41
2024-04-15T02:05:30.204Z,97219.09
2024-04-15T02:07:58.484Z,97218.59
2024-04-15T02:10:26.108Z,97225.94
2024-04-15T02:12:53.654Z,97238.59
2024-04-15T02:15:21.939Z,97237.28
2024-04-15T02:17:49.922Z,97247.00
2024-04-15T02:20:17.828Z,97227.66
2024-04-15T02:22:45.221Z,97233.09
2024-04-15T02:25:12.725Z,97230.19
2024-04-15T02:27:40.008Z,97226.16
2024-04-15T02:30:08.699Z,97223.25
2024-04-15T02:32:36.233Z,97223.00
2024-04-15T02:35:03.619Z,97225.19
2024-04-15T02:37:32.048Z,97220.66
2024-04-15T02:39:59.316Z,97224.97
2024-04-15T02:42:26.738Z,97234.69
2024-04-15T02:44:53.975Z,97218.00
2024-04-15T02:47:22.007Z,97213.19
2024-04-15T02:49:49.279Z,97212.41
2024-04-15T02:52:16.594Z,97214.22
2024-04-15T02:54:43.985Z,97228.75
2024-04-15T02:57:11.194Z,97213.19
2024-04-15T02:59:40.248Z,97226.13
2024-04-15T03:02:07.578Z,97229.84
2024-04-15T03:04:35.059Z,97223.16
2024-04-15T03:07:02.356Z,97232.03
2024-04-15T03:09:29.661Z,97225.84
2024-04-15T03:11:57.161Z,97238.72
2024-04-15T03:14:24.474Z,97227.16
2024-04-15T03:16:51.742Z,97237.38
2024-04-15T03:19:19.206Z,97230.09
2024-04-15T03:21:46.436Z,97232.81
2024-04-15T03:24:13.886Z,97237.31
2024-04-15T03:26:41.262Z,97230.06
2024-04-15T03:29:08.447Z,97226.00
2024-04-15T03:31:35.710Z,97222.44
2024-04-15T03:34:03.119Z,97231.03
2024-04-15T03:36:30.375Z,97233.41
2024-04-15T03:38:57.857Z,97230.47
2024-04-15T03:41:25.095Z,97235.28
2024-04-15T03:43:53.298Z,97204.59
2024-04-15T03:46:20.599Z,97222.56
2024-04-15T03:48:48.009Z,97232.25
2024-04-15T03:51:15.437Z,97232.19
2024-04-15T03:53:42.664Z,97219.00
2024-04-15T03:56:09.994Z,97238.88
2024-04-15T03:58:37.139Z,97231.59
2024-04-15T04:01:04.687Z,97218.38
2024-04-15T04:03:32.030Z,97222.09
2024-04-15T04:06:10.048Z,97225.56
2024-04-15T04:08:41.094Z,97226.56
2024-04-15T04:11:09.325Z,97222.19
2024-04-15T04:13:39.553Z,97225.41
2024-04-15T04:16:07.227Z,97231.81
2024-04-15T04:18:34.716Z,97216.44
2024-04-15T04:21:02.232Z,97221.75
2024-04-15T04:23:29.494Z,97216.09
2024-04-15T04:25:56.770Z,97213.91
2024-04-15T04:28:24.034Z,97224.13
2024-04-15T04:30:51.365Z,97222.75
2024-04-15T04:33:18.672Z,97227.31
2024-04-15T04:35:46.166Z,97222.88
2024-04-15T04:38:13.435Z,97214.50
2024-04-15T04:40:40.669Z,97231.69
2024-04-15T04:43:08.068Z,97216.84
2024-04-15T04:45:35.325Z,97207.88
2024-04-15T04:48:02.889Z,97217.78
2024-04-15T04:50:30.113Z,97222.09
2024-04-15T04:52:57.772Z,97213.13
2024-04-15T04:55:25.176Z,97211.16
2024-04-15T04:57:52.578Z,97227.84
2024-04-15T05:00:19.946Z,97220.34
2024-04-15T05:02:50.415Z,97226.16
2024-04-15T05:05:17.827Z,97220.19
2024-04-15T05:07:45.226Z,97236.63
2024-04-15T05:10:16.181Z,97213.19
2024-04-15T05:12:45.103Z,97218.78
2024-04-15T05:15:15.430Z,97224.38
2024-04-15T05:17:43.486Z,97209.00
2024-04-15T05:20:13.967Z,97187.03
2024-04-15T05:22:45.570Z,97188.63
2024-04-15T05:25:13.308Z,97179.66
2024-04-15T05:27:41.058Z,97173.41
2024-04-15T05:30:09.195Z,97178.13
2024-04-15T05:32:36.830Z,97203.00
2024-04-15T05:35:05.041Z,97205.63
2024-04-15T05:37:32.724Z,97185.94
2024-04-15T05:40:00.659Z,97186.50
2024-04-15T05:42:28.238Z,97179.59
2024-04-15T05:44:55.861Z,97194.22
2024-04-15T05:47:23.205Z,97181.63
2024-04-15T05:49:50.854Z,97199.13
2024-04-15T05:52:19.190Z,97198.63
2024-04-15T05:54:46.789Z,97177.53
2024-04-15T05:57:14.277Z,97180.44
2024-04-15T05:59:41.839Z,97162.81
2024-04-15T06:02:09.414Z,97181.81
2024-04-15T06:04:37.009Z,97169.22
2024-04-15T06:07:04.673Z,97174.53
2024-04-15T06:09:33.556Z,97164.63
2024-04-15T06:12:01.178Z,97162.44
2024-04-15T06:14:28.873Z,97172.22
2024-04-15T06:16:56.361Z,97163.94
2024-04-15T06:19:24.306Z,97165.81
2024-04-15T06:21:52.413Z,97154.47
2024-04-15T06:24:20.370Z,97156.84
2024-04-15T06:26:49.005Z,97155.31
2024-04-15T06:29:16.231Z,97157.88
2024-04-15T06:31:43.625Z,97149.28
2024-04-15T06:34:11.378Z,97153.50
2024-04-15T06:36:38.948Z,97141.66
2024-04-15T06:39:06.360Z,97154.41
2024-04-15T06:41:33.644Z,97151.47
2024-04-15T06:44:01.233Z,97159.31
2024-04-15T06:46:28.904Z,97152.31
2024-04-15T06:48:56.489Z,97151.16
2024-04-15T06:51:23.956Z,97148.75
2024-04-15T06:53:52.412Z,97156.25
2024-04-15T06:56:22.802Z,97131.66
2024-04-15T06:58:50.043Z,97153.09
2024-04-15T07:01:17.610Z,97150.09
2024-04-15T07:03:45.972Z,97154.72
2024-04-15T07:06:16.268Z,97150.59
2024-04-15T07:08:44.857Z,97150.28
2024-04-15T07:11:12.598Z,97171.31
2024-04-15T07:13:39.779Z,97151.31
2024-04-15T07:16:07.797Z,97156.25
2024-04-15T07:18:35.194Z,97145.56
2024-04-15T07:21:02.934Z,97137.72
2024-04-15T07:23:30.508Z,97132.28
2024-04-15T07:26:01.772Z,97147.38
2024-04-15T07:28:29.896Z,97159.78
2024-04-15T07:30:59.896Z,97149.28
2024-04-15T07:33:27.924Z,97153.44
2024-04-15T07:36:00.442Z,97176.50
2024-04-15T07:38:28.300Z,97165.69
2024-04-15T07:41:00.897Z,97141.63
2024-04-15T07:43:30.887Z,97152.16
2024-04-15T07:45:58.585Z,97157.44
2024-04-15T07:48:26.639Z,97134.34
2024-04-15T07:50:56.079Z,97145.09
2024-04-15T07:53:23.654Z,97146.53
2024-04-15T07:55:51.238Z,97136.38
2024-04-15T07:58:18.847Z,97141.94
2024-04-15T08:00:46.288Z,97151.59
2024-04-15T08:03:13.886Z,97149.75
2024-04-15T08:05:41.695Z,97144.47
2024-04-15T08:08:17.986Z,97141.25
2024-04-15T08:11:19.221Z,97130.34
2024-04-15T08:13:46.827Z,97153.28
2024-04-15T08:16:14.564Z,97153.00
2024-04-15T08:18:41.981Z,97142.66
2024-04-15T08:21:09.230Z,97133.94
2024-04-15T08:23:36.659Z,97123.47
2024-04-15T08:26:05.156Z,97130.72
2024-04-15T08:28:32.608Z,97126.31
2024-04-15T08:31:00.267Z,97133.50
2024-04-15T08:33:27.596Z,97125.38
2024-04-15T08:35:55.222Z,97129.22
2024-04-15T08:38:22.797Z,97123.81
2024-04-15T08:40:55.195Z,97134.16
2024-04-15T08:43:23.943Z,97132.53
2024-04-15T08:45:59.747Z,97125.53
2024-04-15T08:48:27.855Z,97118.19
2024-04-15T08:50:56.516Z,97122.50
2024-04-15T08:53:25.078Z,97148.66
2024-04-15T08:55:52.402Z,97138.78
2024-04-15T08:58:20.482Z,97138.88
2024-04-15T09:00:52.095Z,97134.97
2024-04-15T09:03:22.014Z,97128.25
2024-04-15T09:05:49.601Z,97135.06
2024-04-15T09:08:16.993Z,97150.13
2024-04-15T09:10:44.467Z,97128.13
2024-04-15T09:13:12.219Z,97131.97
2024-04-15T09:15:41.129Z,97137.41
2024-04-15T09:18:10.578Z,97119.31
2024-04-15T09:20:49.454Z,97128.09
2024-04-15T09:23:25.545Z,97120.94
2024-04-15T09:25:52.875Z,97116.69
2024-04-15T09:28:20.268Z,97110.81
2024-04-15T09:30:48.668Z,97096.34
2024-04-15T09:33:22.858Z,97102.88
2024-04-15T09:35:54.195Z,97094.44
2024-04-15T09:38:23.255Z,97093.16
2024-04-15T09:40:54.750Z,97091.56
2024-04-15T09:43:27.152Z,97097.41
2024-04-15T09:45:55.158Z,97102.59
2024-04-15T09:48:25.102Z,97078.38
2024-04-15T09:51:28.153Z,97103.09
2024-04-15T09:57:12.690Z,97066.72
2024-04-15T09:59:50.031Z,97074.50
2024-04-15T10:02:41.322Z,97101.91
2024-04-15T10:05:32.419Z,97070.50
2024-04-15T10:08:09.864Z,97086.06
2024-04-15T10:13:43.928Z,97094.41
2024-04-15T10:23:12.857Z,97107.50
2024-04-15T10:26:24.964Z,97087.44
2024-04-15T10:36:22.761Z,97087.00
2024-04-15T10:38:56.458Z,97079.69
2024-04-15T11:05:52.341Z,97074.25
2024-04-15T11:25:58.364Z,97047.22
2024-04-15T11:29:22.018Z,97082.63
2024-04-15T11:48:34.667Z,97047.28
2024-04-15T11:51:25.269Z,97035.47
2024-04-15T11:54:15.640Z,97075.63
2024-04-15T11:56:46.682Z,97063.28
2024-04-15T11:59:16.798Z,97049.13
2024-04-15T12:01:50.777Z,97063.81
2024-04-15T12:04:21.786Z,97038.47
2024-04-15T12:07:13.442Z,97068.44
2024-04-15T12:09:42.913Z,97050.06
2024-04-15T12:24:39.182Z,97050.06
2024-04-15T12:30:22.608Z,97060.38
2024-04-15T12:36:13.048Z,97102.72
2024-04-15T12:38:37.529Z,97106.47
2024-04-15T12:41:15.194Z,97110.34
2024-04-15T12:44:09.701Z,97105.56
2024-04-15T12:47:05.401Z,97111.75
2024-04-15T12:49:34.010Z,97096.78
2024-04-15T12:52:32.603Z,97113.56
2024-04-15T12:55:01.334Z,97108.84
2024-04-15T13:06:15.232Z,97069.16
2024-04-15T13:08:42.851Z,97055.56
2024-04-15T13:11:31.381Z,97068.00
2024-04-15T13:13:58.851Z,97059.13
2024-04-15T13:16:26.505Z,97062.84
2024-04-15T13:26:54.965Z,97033.88
2024-04-15T13:31:20.099Z,97032.13
2024-04-15T13:34:17.652Z,97010.94
2024-04-15T13:36:49.898Z,97006.97
2024-04-15T13:39:21.781Z,97016.13
2024-04-15T13:42:14.192Z,97007.72
2024-04-15T13:44:44.932Z,97008.94
2024-04-15T13:47:14.962Z,97008.47
2024-04-15T13:58:24.675Z,96994.56
2024-04-15T14:01:11.575Z,96995.91
2024-04-15T14:03:42.211Z,96990.91
2024-04-15T14:06:11.963Z,96990.81
2024-04-15T14:08:40.384Z,97006.09
2024-04-15T14:11:09.778Z,96990.94
2024-04-15T14:13:37.463Z,96975.66
2024-04-15T14:16:05.661Z,96966.13
2024-04-15T14:18:35.253Z,96968.44
2024-04-15T14:21:06.455Z,96959.69
2024-04-15T14:23:34.710Z,96983.22
2024-04-15T14:26:03.732Z,96984.56
2024-04-15T14:28:31.218Z,96994.22
2024-04-15T14:31:00.030Z,96966.66
2024-04-15T14:33:30.282Z,96965.25
2024-04-15T14:35:58.336Z,96956.91
2024-04-15T14:38:27.754Z,96947.78
2024-04-15T14:40:58.192Z,96932.28
2024-04-15T14:43:26.269Z,96951.47
2024-04-15T14:45:59.574Z,96946.34
2024-04-15T14:48:27.620Z,96957.03
2024-04-15T14:51:00.880Z,97001.88
2024-04-15T14:53:30.701Z,97023.94
2024-04-15T14:55:58.356Z,97011.22
2024-04-15T14:58:25.912Z,97018.22
2024-04-15T15:00:53.723Z,97014.63
2024-04-15T15:03:21.284Z,97026.25
2024-04-15T15:05:52.538Z,97030.66
2024-04-15T15:08:21.888Z,97031.75
2024-04-15T15:10:49.541Z,97043.50
2024-04-15T15:13:17.049Z,97049.88
2024-04-15T15:15:47.862Z,97042.28
2024-04-15T15:18:16.236Z,97055.09
2024-04-15T15:20:43.834Z,97041.31
2024-04-15T15:23:11.413Z,97070.88
2024-04-15T15:25:41.906Z,97019.56
2024-04-15T15:28:11.635Z,97033.91
2024-04-15T15:30:39.534Z,96998.16
2024-04-15T15:33:07.290Z,97014.59
2024-04-15T15:35:34.760Z,97003.22
2024-04-15T15:38:02.778Z,96976.41
2024-04-15T15:40:31.159Z,97006.97
2024-04-15T15:42:58.713Z,97015.78
2024-04-15T15:45:27.445Z,96999.28
2024-04-15T15:47:56.986Z,97012.56
2024-04-15T15:50:24.334Z,97004.44
2024-04-15T15:52:51.642Z,96995.53
2024-04-15T15:55:20.788Z,96993.38
2024-04-15T15:57:48.455Z,97007.75
2024-04-15T16:00:17.020Z,97006.88
2024-04-15T16:02:50.457Z,96997.28
2024-04-15T16:05:18.944Z,97021.41
2024-04-15T16:07:46.685Z,97018.03
2024-04-15T16:10:16.883Z,97015.56
2024-04-15T16:12:45.838Z,97020.66
2024-04-15T16:15:13.487Z,97027.91
2024-04-15T16:17:41.680Z,97043.72
2024-04-15T16:20:12.159Z,97044.84
2024-04-15T16:22:39.653Z,97048.06
2024-04-15T16:25:11.296Z,97061.63
2024-04-15T16:27:38.969Z,97117.34
2024-04-15T16:30:17.189Z,97152.19
2024-04-15T16:32:46.962Z,97094.75
2024-04-15T16:35:15.691Z,97059.84
2024-04-15T16:37:43.227Z,97060.56
2024-04-15T16:40:11.340Z,97071.38
2024-04-15T16:42:38.937Z,97057.75
2024-04-15T16:45:07.123Z,97059.88
2024-04-15T16:47:35.199Z,97062.25
2024-04-15T16:50:09.079Z,97087.75
2024-04-15T16:52:37.242Z,97050.78
2024-04-15T16:55:06.339Z,97068.16
2024-04-15T16:57:34.138Z,97058.84
2024-04-15T17:00:07.398Z,97062.81
2024-04-15T17:02:35.118Z,97054.47
2024-04-15T17:05:03.297Z,97057.66
2024-04-15T17:07:31.169Z,97096.97
2024-04-15T17:09:59.413Z,97090.47
2024-04-15T17:12:27.446Z,97078.47
2024-04-15T17:14:56.560Z,97076.53
2024-04-15T17:17:29.330Z,97075.03
2024-04-15T17:19:57.026Z,97083.13
2024-04-15T17:22:25.284Z,97071.88
2024-04-15T17:24:54.261Z,97089.63
2024-04-15T17:27:26.434Z,97069.22
2024-04-15T17:29:55.914Z,97061.44
2024-04-15T17:32:30.506Z,97075.25
2024-04-15T17:34:58.854Z,97079.84
2024-04-15T17:37:30.234Z,97112.84
2024-04-15T17:40:03.431Z,97060.56
2024-04-15T17:42:41.465Z,97076.81
2024-04-15T17:45:18.915Z,97058.63
2024-04-15T17:47:47.493Z,97082.41
2024-04-15T17:50:15.073Z,97068.75
2024-04-15T17:52:42.616Z,97077.34
2024-04-15T17:55:11.665Z,97085.31
2024-04-15T17:57:39.735Z,97074.56
2024-04-15T18:00:07.807Z,97078.91
2024-04-15T18:02:35.710Z,97077.56
2024-04-15T18:05:06.454Z,97068.69
2024-04-15T18:07:35.685Z,97058.25
2024-04-15T18:10:04.135Z,97062.06
2024-04-15T18:12:32.413Z,97063.22
2024-04-15T18:15:03.417Z,97066.97
2024-04-15T18:17:38.948Z,97057.72
2024-04-15T18:20:08.698Z,97055.50
2024-04-15T18:22:36.557Z,97071.53
2024-04-15T18:25:04.442Z,97069.16
2024-04-15T18:27:32.098Z,97058.69
2024-04-15T18:29:59.762Z,97063.44
2024-04-15T18:32:27.337Z,97082.41
2024-04-15T18:34:54.774Z,97071.13
2024-04-15T18:37:22.428Z,97080.81
2024-04-15T18:39:50.020Z,97086.97
2024-04-15T18:42:18.133Z,97074.06
2024-04-15T18:44:46.055Z,97076.47
2024-04-15T18:47:13.498Z,97080.75
2024-04-15T18:49:40.928Z,97078.06
2024-04-15T18:52:08.605Z,97080.47
2024-04-15T18:54:36.159Z,97076.47
2024-04-15T18:57:03.973Z,97078.88
2024-04-15T18:59:31.511Z,97087.72
2024-04-15T19:02:01.241Z,97086.06
2024-04-15T19:04:28.928Z,97077.72
2024-04-15T19:06:56.612Z,97074.53
2024-04-15T19:09:24.136Z,97075.56
2024-04-15T19:11:51.551Z,97081.38
2024-04-15T19:14:21.168Z,97087.91
2024-04-15T19:16:49.051Z,97082.72
2024-04-15T19:19:16.529Z,97084.06
2024-04-15T19:21:44.198Z,97076.81
2024-04-15T19:24:12.885Z,97074.69
2024-04-15T19:26:41.635Z,97096.72
2024-04-15T19:29:09.455Z,97095.34
2024-04-15T19:31:37.216Z,97089.66
2024-04-15T19:34:04.715Z,97117.28
2024-04-15T19:36:32.400Z,97093.38
2024-04-15T19:38:59.698Z,97082.63
2024-04-15T19:41:31.273Z,97101.72
2024-04-15T19:43:58.961Z,97094.69
2024-04-15T19:46:26.763Z,97105.94
2024-04-15T19:48:56.680Z,97082.84
2024-04-15T19:51:24.315Z,97080.22
2024-04-15T19:53:52.550Z,97104.63
2024-04-15T19:56:20.048Z,97076.75
2024-04-15T19:58:47.364Z,97110.47
2024-04-15T20:01:15.733Z,97085.38
2024-04-15T20:03:43.474Z,97093.53
2024-04-15T20:06:11.566Z,97094.06
2024-04-15T20:08:38.980Z,97078.78
2024-04-15T20:11:06.473Z,97094.78
2024-04-15T20:13:34.179Z,97118.31
2024-04-15T20:16:01.634Z,97102.75
2024-04-15T20:18:37.436Z,97097.38
2024-04-15T20:21:05.681Z,97080.50
2024-04-15T20:23:35.681Z,97102.81
2024-04-15T20:26:03.457Z,97093.44
2024-04-15T20:28:30.977Z,97069.28
2024-04-15T20:30:58.580Z,97075.38
2024-04-15T20:33:26.252Z,97072.47
2024-04-15T20:35:53.689Z,97090.63
2024-04-15T20:38:21.227Z,97086.28
2024-04-15T20:40:48.967Z,97098.06
2024-04-15T20:43:16.225Z,97104.53
2024-04-15T20:45:49.506Z,97095.31
2024-04-15T20:48:18.835Z,97091.03
2024-04-15T20:50:46.755Z,97075.81
2024-04-15T20:53:14.210Z,97094.81
2024-04-15T20:55:41.929Z,97100.47
2024-04-15T20:58:10.392Z,97117.38
2024-04-15T21:00:38.074Z,97077.53
2024-04-15T21:03:06.143Z,97086.28
2024-04-15T21:05:33.773Z,97068.34
2024-04-15T21:08:01.132Z,97061.94
2024-04-15T21:10:31.042Z,97055.28
2024-04-15T21:13:01.329Z,97088.69
2024-04-15T21:15:28.978Z,97087.38
2024-04-15T21:17:56.462Z,97070.28
2024-04-15T21:20:24.640Z,97105.03
2024-04-15T21:22:52.336Z,97088.22
2024-04-15T21:25:19.996Z,97095.16
2024-04-15T21:27:47.458Z,97100.41
2024-04-15T21:30:14.988Z,97091.53
2024-04-15T21:32:42.522Z,97103.38
2024-04-15T21:35:09.995Z,97098.06
2024-04-15T21:37:37.303Z,97102.28
2024-04-15T21:40:05.124Z,97104.97
2024-04-15T21:42:32.979Z,97099.88
2024-04-15T21:45:02.303Z,97108.25
2024-04-15T21:47:32.165Z,97119.78
2024-04-15T21:49:59.911Z,97093.25
2024-04-15T21:52:27.652Z,97106.13
2024-04-15T21:54:55.221Z,97103.44
2024-04-15T21:57:26.366Z,97107.44
2024-04-15T21:59:54.045Z,97095.38
2024-04-15T22:02:21.451Z,97107.66
2024-04-15T22:04:59.564Z,97118.94
2024-04-15T22:07:32.925Z,97122.69
2024-04-15T22:10:01.293Z,97127.25
2024-04-15T22:12:31.255Z,97114.34
2024-04-15T22:14:58.721Z,97095.09
2024-04-15T22:17:29.160Z,97101.50
2024-04-15T22:19:56.999Z,97106.41
2024-04-15T22:22:24.570Z,97104.97
2024-04-15T22:24:52.364Z,97125.31
2024-04-15T22:27:19.853Z,97131.81
2024-04-15T22:29:47.376Z,97130.16
2024-04-15T22:32:14.990Z,97118.66
2024-04-15T22:34:43.032Z,97133.72
2024-04-15T22:37:14.237Z,97117.44
2024-04-15T22:39:42.003Z,97145.22
2024-04-15T22:42:09.775Z,97124.88
2024-04-15T22:44:37.294Z,97124.84
2024-04-15T22:47:05.301Z,97143.09
2024-04-15T22:49:32.720Z,97143.91
2024-04-15T22:52:01.157Z,97136.13
2024-04-15T22:54:31.080Z,97104.53
2024-04-15T22:57:01.205Z,97127.25
2024-04-15T22:59:28.919Z,97121.34
2024-04-15T23:01:56.817Z,97111.94
2024-04-15T23:04:24.561Z,97147.84
2024-04-15T23:06:52.051Z,97113.84
2024-04-15T23:09:20.317Z,97108.72
2024-04-15T23:11:50.441Z,97127.66
2024-04-15T23:14:23.082Z,97120.16
2024-04-15T23:16:56.234Z,97119.41
2024-04-15T23:19:36.677Z,97123.66
2024-04-15T23:22:04.749Z,97106.03
2024-04-15T23:24:33.833Z,97125.53
2024-04-15T23:27:05.397Z,97103.22
2024-04-15T23:29:35.869Z,97123.75
2024-04-15T23:32:05.455Z,97121.97
2024-04-15T23:34:39.808Z,97113.69
2024-04-15T23:37:07.505Z,97114.50
2024-04-15T23:39:34.706Z,97128.03
2024-04-15T23:42:02.084Z,97132.63
2024-04-15T23:44:34.108Z,97123.81
2024-04-15T23:47:19.985Z,97130.03
2024-04-15T23:50:06.454Z,97146.69
2024-04-15T23:52:52.412Z,97130.56
2024-04-15T23:55:39.797Z,97124.97
2024-04-15T23:58:10.511Z,97139.59
